Time;durP1;ratioP1;P1;durP2;ratioP2;P2;SDS_P1;SDS_P2;PMS_P1;PMS_P2;Temp;Humidity;BMP_temperature;BMP_pressure;BME280_temperature;BME280_humidity;BME280_pressure;Samples;Min_cycle;Max_cycle;Signal;HPM_P1;HPM_P2
2024/01/02 00:02:15;;;;;;;;;;;6.60;99.90;;;;;;5030667;28;19925;-69
2024/01/02 00:04:44;;;;;;;;;;;6.60;99.90;;;;;;5030574;28;20015;-68
2024/01/02 00:07:12;;;;;;;;;;;6.60;99.90;;;;;;5034098;28;20388;-68
2024/01/02 00:09:39;;;;;;;;;;;6.60;99.90;;;;;;5033411;28;19925;-69
2024/01/02 00:12:07;;;;;;;;;;;6.50;99.90;;;;;;5033663;28;19952;-70
2024/01/02 00:14:35;;;;;;;;;;;6.60;99.90;;;;;;5033800;28;20281;-69
2024/01/02 00:17:04;;;;;;;;;;;6.60;99.90;;;;;;5034087;28;19925;-69
2024/01/02 00:19:31;;;;;;;;;;;6.50;99.90;;;;;;5032970;28;19929;-69
2024/01/02 00:22:01;;;;;;;;;;;6.50;99.90;;;;;;5033613;28;20295;-69
2024/01/02 00:24:29;;;;;;;;;;;6.50;99.90;;;;;;5033674;28;19929;-68
2024/01/02 00:26:57;;;;;;;;;;;6.50;99.90;;;;;;5036140;28;19933;-69
2024/01/02 00:29:24;;;;;;;;;;;6.50;99.90;;;;;;5053113;28;19978;-69
2024/01/02 00:31:52;;;;;;;;;;;6.50;99.90;;;;;;5048327;28;19951;-70
2024/01/02 00:34:20;;;;;;;;;;;6.50;99.90;;;;;;5052919;28;19932;-69
2024/01/02 00:36:48;;;;;;;;;;;6.40;99.90;;;;;;5053247;28;20411;-69
2024/01/02 00:39:17;;;;;;;;;;;6.40;99.90;;;;;;5053038;28;19931;-68
2024/01/02 00:41:45;;;;;;;;;;;6.40;99.90;;;;;;5053369;28;19924;-71
2024/01/02 00:44:13;;;;;;;;;;;6.40;99.90;;;;;;5053025;28;19928;-71
2024/01/02 00:46:41;;;;;;;;;;;6.40;99.90;;;;;;5052999;28;19925;-71
2024/01/02 00:49:09;;;;;;;;;;;6.40;99.90;;;;;;5052699;28;20784;-68
2024/01/02 00:51:37;;;;;;;;;;;6.50;99.90;;;;;;5052994;28;19969;-71
2024/01/02 00:54:04;;;;;;;;;;;6.40;99.90;;;;;;5061152;28;19924;-69
2024/01/02 00:56:33;;;;;;;;;;;6.40;99.90;;;;;;5053031;28;19933;-71
2024/01/02 00:59:02;;;;;;;;;;;6.50;99.90;;;;;;5071784;28;19931;-71
2024/01/02 01:01:30;;;;;;;;;;;6.50;99.90;;;;;;5057848;28;19968;-71
2024/01/02 01:03:58;;;;;;;;;;;6.40;99.90;;;;;;5052455;28;19990;-71
2024/01/02 01:06:26;;;;;;;;;;;6.40;99.90;;;;;;5052795;28;19925;-71
2024/01/02 01:08:54;;;;;;;;;;;6.40;99.90;;;;;;5051989;28;19925;-71
2024/01/02 01:11:22;;;;;;;;;;;6.50;99.90;;;;;;5052824;28;20320;-72
2024/01/02 01:13:51;;;;;;;;;;;6.40;99.90;;;;;;5052268;28;20043;-72
2024/01/02 01:16:19;;;;;;;;;;;6.40;99.90;;;;;;5051283;28;19928;-69
2024/01/02 01:18:46;;;;;;;;;;;6.40;99.90;;;;;;5052610;28;19928;-71
2024/01/02 01:21:14;;;;;;;;;;;6.40;99.90;;;;;;5052582;28;19925;-71
2024/01/02 01:23:42;;;;;;;;;;;6.40;99.90;;;;;;5052148;28;20284;-73
2024/01/02 01:26:10;;;;;;;;;;;6.40;99.90;;;;;;5051834;28;19925;-72
2024/01/02 01:28:38;;;;;;;;;;;6.30;99.90;;;;;;5056700;28;20410;-71
2024/01/02 01:31:07;;;;;;;;;;;6.40;99.90;;;;;;5059629;28;19937;-71
2024/01/02 01:33:35;;;;;;;;;;;6.40;99.90;;;;;;5052222;28;19925;-71
2024/01/02 01:36:04;;;;;;;;;;;6.40;99.90;;;;;;5052020;28;19959;-73
2024/01/02 01:38:33;;;;;;;;;;;6.40;99.90;;;;;;5052551;28;19939;-69
2024/01/02 01:41:00;;;;;;;;;;;6.40;99.90;;;;;;5051183;28;20285;-70
2024/01/02 01:43:29;;;;;;;;;;;6.40;99.90;;;;;;5053153;28;19940;-72
2024/01/02 01:45:57;;;;;;;;;;;6.40;99.90;;;;;;5052063;28;19925;-71
2024/01/02 01:48:26;;;;;;;;;;;6.40;99.90;;;;;;5052120;28;19925;-70
2024/01/02 01:50:54;;;;;;;;;;;6.40;99.90;;;;;;5051223;28;19925;-71
2024/01/02 01:53:23;;;;;;;;;;;6.40;99.90;;;;;;5051521;28;20304;-68
2024/01/02 01:55:51;;;;;;;;;;;6.30;99.90;;;;;;5051940;28;19925;-69
2024/01/02 01:58:19;;;;;;;;;;;6.40;99.90;;;;;;5057942;28;19971;-69
2024/01/02 02:00:47;;;;;;;;;;;6.30;99.90;;;;;;5053860;28;19990;-69
2024/01/02 02:03:15;;;;;;;;;;;6.30;99.90;;;;;;5051729;28;20307;-69
2024/01/02 02:05:45;;;;;;;;;;;6.30;99.90;;;;;;5051472;28;19928;-72
2024/01/02 02:08:13;;;;;;;;;;;6.30;99.90;;;;;;5051895;28;20303;-69
2024/01/02 02:10:41;;;;;;;;;;;6.30;99.90;;;;;;5051074;28;20027;-70
2024/01/02 02:13:09;;;;;;;;;;;6.30;99.90;;;;;;5051441;28;20346;-70
2024/01/02 02:15:40;;;;;;;;;;;6.30;99.90;;;;;;5051215;28;19982;-69
2024/01/02 02:18:08;;;;;;;;;;;6.30;99.90;;;;;;5051109;28;19931;-69
2024/01/02 02:20:36;;;;;;;;;;;6.30;99.90;;;;;;5050808;28;19987;-69
2024/01/02 02:23:05;;;;;;;;;;;6.30;99.90;;;;;;5051565;28;19964;-69
2024/01/02 02:25:34;;;;;;;;;;;6.30;99.90;;;;;;5051180;28;20395;-70
2024/01/02 02:28:03;;;;;;;;;;;6.30;99.90;;;;;;5061464;28;19931;-69
2024/01/02 02:30:31;;;;;;;;;;;6.30;99.90;;;;;;5059163;28;19935;-69
2024/01/02 02:32:58;;;;;;;;;;;6.30;99.90;;;;;;5180259;22;19992;-68
2024/01/02 02:35:28;;;;;;;;;;;6.30;99.90;;;;;;5036096;28;19925;-67
2024/01/02 02:37:56;;;;;;;;;;;6.30;99.90;;;;;;5033456;28;19971;-69
2024/01/02 02:40:26;;;;;;;;;;;6.30;99.90;;;;;;5037680;28;20320;-68
2024/01/02 02:42:54;;;;;;;;;;;6.30;99.90;;;;;;5034591;28;20357;-68
2024/01/02 02:45:22;;;;;;;;;;;6.30;99.90;;;;;;5050786;28;20486;-68
2024/01/02 02:47:50;;;;;;;;;;;6.30;99.90;;;;;;5033546;28;19931;-68
2024/01/02 02:50:18;;;;;;;;;;;6.30;99.90;;;;;;5030599;28;20004;-68
2024/01/02 02:52:46;;;;;;;;;;;6.30;99.90;;;;;;5023278;28;19933;-68
2024/01/02 02:55:15;;;;;;;;;;;6.30;99.90;;;;;;5027478;28;20023;-68
2024/01/02 02:57:44;;;;;;;;;;;6.40;99.90;;;;;;5026598;28;19995;-68
2024/01/02 03:00:13;;;;;;;;;;;6.30;99.90;;;;;;5026431;28;19935;-69
2024/01/02 03:02:40;;;;;;;;;;;6.30;99.90;;;;;;5036963;28;19936;-68
2024/01/02 03:05:09;;;;;;;;;;;6.30;99.90;;;;;;5010505;28;20648;-68
2024/01/02 03:07:37;;;;;;;;;;;6.30;99.90;;;;;;5020699;28;19925;-67
2024/01/02 03:10:06;;;;;;;;;;;6.30;99.90;;;;;;5015398;28;19976;-67
2024/01/02 03:12:33;;;;;;;;;;;6.30;99.90;;;;;;5050665;28;19931;-68
2024/01/02 03:15:03;;;;;;;;;;;6.30;99.90;;;;;;5032934;28;19965;-69
2024/01/02 03:17:31;;;;;;;;;;;6.30;99.90;;;;;;5035553;28;19925;-67
2024/01/02 03:19:59;;;;;;;;;;;6.30;99.90;;;;;;5047188;28;19924;-68
2024/01/02 03:22:27;;;;;;;;;;;6.30;99.90;;;;;;5036256;28;20027;-68
2024/01/02 03:24:56;;;;;;;;;;;6.30;99.90;;;;;;5030481;28;19930;-68
2024/01/02 03:27:23;;;;;;;;;;;6.20;99.90;;;;;;5029914;28;20410;-67
2024/01/02 03:29:51;;;;;;;;;;;6.30;99.90;;;;;;5029513;28;20369;-68
2024/01/02 03:32:21;;;;;;;;;;;6.20;99.90;;;;;;5034353;28;19928;-68
2024/01/02 03:34:50;;;;;;;;;;;6.30;99.90;;;;;;5018929;28;19926;-68
2024/01/02 03:37:18;;;;;;;;;;;6.30;99.90;;;;;;5043497;28;20355;-69
2024/01/02 03:39:46;;;;;;;;;;;6.20;99.90;;;;;;5011333;28;19933;-69
2024/01/02 03:42:14;;;;;;;;;;;6.30;99.90;;;;;;5036338;28;20023;-68
2024/01/02 03:44:42;;;;;;;;;;;6.20;99.90;;;;;;5032446;28;19952;-69
2024/01/02 03:47:10;;;;;;;;;;;6.30;99.90;;;;;;5054082;28;19999;-69
2024/01/02 03:49:39;;;;;;;;;;;6.20;99.90;;;;;;5025368;28;19925;-69
2024/01/02 03:52:07;;;;;;;;;;;6.20;99.90;;;;;;5033978;28;19925;-69
2024/01/02 03:54:35;;;;;;;;;;;6.20;99.90;;;;;;5048829;28;19925;-69
2024/01/02 03:57:03;;;;;;;;;;;6.20;99.90;;;;;;5033114;28;19947;-69
2024/01/02 03:59:31;;;;;;;;;;;6.20;99.90;;;;;;5022880;28;19932;-68
2024/01/02 04:02:00;;;;;;;;;;;6.20;99.90;;;;;;5033410;28;20453;-68
2024/01/02 04:04:28;;;;;;;;;;;6.20;99.90;;;;;;5045249;28;20340;-69
2024/01/02 04:06:57;;;;;;;;;;;6.10;99.90;;;;;;5030568;28;20007;-69
2024/01/02 04:09:25;;;;;;;;;;;6.10;99.90;;;;;;5029713;28;19925;-68
2024/01/02 04:11:53;;;;;;;;;;;6.20;99.90;;;;;;5030351;28;19929;-69
2024/01/02 04:14:21;;;;;;;;;;;6.20;99.90;;;;;;5014181;28;19926;-69
2024/01/02 04:16:49;;;;;;;;;;;6.20;99.90;;;;;;5030640;28;19925;-70
2024/01/02 04:19:17;;;;;;;;;;;6.20;99.90;;;;;;5020834;28;19925;-68
2024/01/02 04:21:45;;;;;;;;;;;6.10;99.90;;;;;;5012556;28;19948;-69
2024/01/02 04:24:15;;;;;;;;;;;6.10;99.90;;;;;;5027359;28;19975;-69
2024/01/02 04:26:43;;;;;;;;;;;6.10;99.90;;;;;;5028762;28;19926;-68
2024/01/02 04:29:11;;;;;;;;;;;6.20;99.90;;;;;;5039252;28;19991;-69
2024/01/02 04:31:39;;;;;;;;;;;6.20;99.90;;;;;;5014775;28;20027;-69
2024/01/02 04:34:06;;;;;;;;;;;6.20;99.90;;;;;;5052041;28;19925;-69
2024/01/02 04:36:34;;;;;;;;;;;6.10;99.90;;;;;;5037617;28;19932;-68
2024/01/02 04:39:03;;;;;;;;;;;6.10;99.90;;;;;;5049306;28;20020;-68
2024/01/02 04:41:32;;;;;;;;;;;6.10;99.90;;;;;;5028302;28;19932;-68
2024/01/02 04:44:00;;;;;;;;;;;6.10;99.90;;;;;;5029932;28;19931;-69
2024/01/02 04:46:30;;;;;;;;;;;6.10;99.90;;;;;;5021751;28;19925;-68
2024/01/02 04:48:58;;;;;;;;;;;6.20;99.90;;;;;;5044793;28;19924;-68
2024/01/02 04:51:27;;;;;;;;;;;6.20;99.90;;;;;;5020846;28;20347;-68
2024/01/02 04:53:54;;;;;;;;;;;6.20;99.90;;;;;;5036735;28;19925;-67
2024/01/02 04:56:22;;;;;;;;;;;6.20;99.90;;;;;;5034397;28;19925;-68
2024/01/02 04:58:51;;;;;;;;;;;6.20;99.90;;;;;;5032900;28;20388;-68
2024/01/02 05:01:19;;;;;;;;;;;6.20;99.90;;;;;;5051743;28;19925;-69
2024/01/02 05:03:47;;;;;;;;;;;6.20;99.90;;;;;;5052553;28;19925;-69
2024/01/02 05:06:15;;;;;;;;;;;6.30;99.90;;;;;;5052553;28;19987;-69
2024/01/02 05:08:43;;;;;;;;;;;6.20;99.90;;;;;;5036452;28;19924;-68
2024/01/02 05:11:11;;;;;;;;;;;6.20;99.90;;;;;;5024810;28;19963;-68
2024/01/02 05:13:39;;;;;;;;;;;6.30;99.90;;;;;;5037895;28;19971;-73
2024/01/02 05:16:09;;;;;;;;;;;6.30;99.90;;;;;;5049397;28;19936;-68
2024/01/02 05:18:37;;;;;;;;;;;6.30;99.90;;;;;;5035836;28;19925;-69
2024/01/02 05:21:05;;;;;;;;;;;6.40;99.90;;;;;;5018229;28;20005;-68
2024/01/02 05:23:33;;;;;;;;;;;6.30;99.90;;;;;;5037384;28;19929;-68
2024/01/02 05:26:00;;;;;;;;;;;6.30;99.90;;;;;;5037884;28;19932;-68
2024/01/02 05:28:29;;;;;;;;;;;6.30;99.90;;;;;;5043819;28;20019;-68
2024/01/02 05:30:57;;;;;;;;;;;6.40;99.90;;;;;;5049418;28;20236;-68
2024/01/02 05:33:26;;;;;;;;;;;6.30;99.90;;;;;;5051864;28;19936;-69
2024/01/02 05:35:54;;;;;;;;;;;6.40;99.90;;;;;;5035885;28;20307;-68
2024/01/02 05:38:22;;;;;;;;;;;6.40;99.90;;;;;;5043900;28;19925;-68
2024/01/02 05:40:49;;;;;;;;;;;6.40;99.90;;;;;;5022545;28;19925;-71
2024/01/02 05:43:17;;;;;;;;;;;6.40;99.90;;;;;;5028378;28;20020;-68
2024/01/02 05:45:45;;;;;;;;;;;6.40;99.90;;;;;;5017323;28;19932;-68
2024/01/02 05:48:13;;;;;;;;;;;6.40;99.90;;;;;;5041207;28;19947;-69
2024/01/02 05:50:43;;;;;;;;;;;6.40;99.90;;;;;;5050982;28;19925;-68
2024/01/02 05:53:11;;;;;;;;;;;6.40;99.90;;;;;;5051536;28;19947;-68
2024/01/02 05:55:39;;;;;;;;;;;6.40;99.90;;;;;;5026264;28;19925;-68
2024/01/02 05:58:07;;;;;;;;;;;6.50;99.90;;;;;;5013615;28;19968;-70
2024/01/02 06:00:36;;;;;;;;;;;6.50;99.90;;;;;;5031971;28;19959;-68
2024/01/02 06:03:04;;;;;;;;;;;6.40;99.90;;;;;;5019218;28;19988;-68
2024/01/02 06:05:32;;;;;;;;;;;6.50;99.90;;;;;;5051215;28;19937;-68
2024/01/02 06:08:01;;;;;;;;;;;6.50;99.90;;;;;;5023539;28;19925;-69
2024/01/02 06:10:29;;;;;;;;;;;6.40;99.90;;;;;;5011422;28;19933;-69
2024/01/02 06:12:57;;;;;;;;;;;6.50;99.90;;;;;;5041521;28;19932;-69
2024/01/02 06:15:25;;;;;;;;;;;6.50;99.90;;;;;;5043726;28;19925;-69
2024/01/02 06:17:53;;;;;;;;;;;6.50;99.90;;;;;;5045666;28;20410;-69
2024/01/02 06:20:21;;;;;;;;;;;6.50;99.90;;;;;;5015949;28;19941;-69
2024/01/02 06:22:49;;;;;;;;;;;6.60;99.90;;;;;;5044963;28;19932;-70
2024/01/02 06:25:18;;;;;;;;;;;6.60;99.90;;;;;;5034664;28;19931;-69
2024/01/02 06:27:46;;;;;;;;;;;6.60;99.90;;;;;;5022569;28;20012;-68
2024/01/02 06:30:15;;;;;;;;;;;6.60;99.90;;;;;;5026744;28;20305;-68
2024/01/02 06:32:43;;;;;;;;;;;6.60;99.90;;;;;;4993441;28;19925;-68
2024/01/02 06:35:12;;;;;;;;;;;6.60;99.90;;;;;;5044068;28;20000;-67
2024/01/02 06:37:40;;;;;;;;;;;6.60;99.90;;;;;;5005912;28;19929;-68
2024/01/02 06:40:09;;;;;;;;;;;6.60;99.90;;;;;;5014750;28;20032;-68
2024/01/02 06:42:38;;;;;;;;;;;6.60;99.90;;;;;;5031184;28;19931;-68
2024/01/02 06:45:07;;;;;;;;;;;6.60;99.90;;;;;;5038192;28;20165;-68
2024/01/02 06:47:35;;;;;;;;;;;6.60;99.90;;;;;;5026213;28;19967;-68
2024/01/02 06:50:03;;;;;;;;;;;6.60;99.90;;;;;;5017266;28;19929;-67
2024/01/02 06:52:31;;;;;;;;;;;6.70;99.90;;;;;;5033189;28;19924;-68
2024/01/02 06:54:59;;;;;;;;;;;6.70;99.90;;;;;;5050971;28;19929;-68
2024/01/02 06:57:27;;;;;;;;;;;6.70;99.90;;;;;;5026166;28;19925;-69
2024/01/02 06:59:56;;;;;;;;;;;6.80;99.90;;;;;;5024579;28;20392;-68
2024/01/02 07:02:24;;;;;;;;;;;6.80;99.90;;;;;;5038530;28;19939;-68
2024/01/02 07:04:52;;;;;;;;;;;6.70;99.90;;;;;;5046503;28;19925;-68
2024/01/02 07:07:20;;;;;;;;;;;6.70;99.90;;;;;;5018270;28;19933;-68
2024/01/02 07:09:48;;;;;;;;;;;6.70;99.90;;;;;;5043479;28;19925;-68
2024/01/02 07:12:15;;;;;;;;;;;6.80;99.90;;;;;;5038308;28;19925;-68
2024/01/02 07:14:43;;;;;;;;;;;6.80;99.90;;;;;;5011165;28;20312;-68
2024/01/02 07:17:15;;;;;;;;;;;6.80;99.90;;;;;;5005821;28;20333;-67
2024/01/02 07:19:43;;;;;;;;;;;6.90;99.90;;;;;;5026024;28;19925;-67
2024/01/02 07:22:11;;;;;;;;;;;7.20;99.90;;;;;;5022370;28;19933;-67
2024/01/02 07:24:39;;;;;;;;;;;7.40;99.90;;;;;;5022726;28;19939;-68
2024/01/02 07:27:07;;;;;;;;;;;7.60;99.90;;;;;;5005167;28;19968;-68
2024/01/02 07:29:35;;;;;;;;;;;7.80;99.90;;;;;;5019209;28;19930;-66
2024/01/02 07:32:03;;;;;;;;;;;7.90;99.90;;;;;;5000971;28;19937;-66
2024/01/02 07:34:32;;;;;;;;;;;7.90;99.90;;;;;;5002068;28;20104;-67
2024/01/02 07:37:00;;;;;;;;;;;8.10;99.90;;;;;;5002437;28;19940;-67
2024/01/02 07:39:28;;;;;;;;;;;8.10;99.90;;;;;;5000914;28;19968;-67
2024/01/02 07:41:57;;;;;;;;;;;8.10;99.90;;;;;;5001091;28;19933;-67
2024/01/02 07:44:25;;;;;;;;;;;8.20;99.90;;;;;;5002158;28;19925;-67
2024/01/02 07:46:53;;;;;;;;;;;8.20;99.90;;;;;;5002763;28;19957;-67
2024/01/02 07:49:20;;;;;;;;;;;8.30;99.90;;;;;;5002261;28;19940;-67
2024/01/02 07:51:51;;;;;;;;;;;8.30;99.90;;;;;;5002793;28;19929;-67
2024/01/02 07:54:19;;;;;;;;;;;8.30;99.90;;;;;;5002532;28;19929;-69
2024/01/02 07:56:48;;;;;;;;;;;8.40;99.90;;;;;;5003129;28;19940;-67
2024/01/02 07:59:19;;;;;;;;;;;8.40;99.90;;;;;;5002623;28;19933;-70
2024/01/02 08:01:48;;;;;;;;;;;8.50;99.90;;;;;;5002933;28;19934;-67
2024/01/02 08:04:16;;;;;;;;;;;8.50;99.90;;;;;;5002718;28;19937;-70
2024/01/02 08:06:43;;;;;;;;;;;8.50;99.90;;;;;;5002576;28;20008;-68
2024/01/02 08:09:14;;;;;;;;;;;8.60;99.90;;;;;;5001183;28;19941;-67
2024/01/02 08:11:42;;;;;;;;;;;8.60;99.90;;;;;;5002349;28;19933;-68
2024/01/02 08:14:10;;;;;;;;;;;8.60;99.90;;;;;;5002114;28;19956;-69
2024/01/02 08:16:37;;;;;;;;;;;8.70;99.90;;;;;;5001942;28;19936;-68
2024/01/02 08:19:05;;;;;;;;;;;8.70;99.90;;;;;;5001269;28;19930;-70
2024/01/02 08:21:33;;;;;;;;;;;8.70;99.90;;;;;;5001163;28;19960;-67
2024/01/02 08:24:01;;;;;;;;;;;8.70;99.90;;;;;;5001264;28;19933;-68
2024/01/02 08:26:31;;;;;;;;;;;8.70;99.90;;;;;;5000758;28;20486;-67
2024/01/02 08:28:59;;;;;;;;;;;8.70;99.90;;;;;;5001264;28;19933;-68
2024/01/02 08:31:27;;;;;;;;;;;8.80;99.90;;;;;;5001301;28;19931;-67
2024/01/02 08:33:55;;;;;;;;;;;8.80;99.90;;;;;;5020663;28;19929;-68
2024/01/02 08:36:23;;;;;;;;;;;8.80;99.90;;;;;;5021050;28;19925;-67
2024/01/02 08:38:51;;;;;;;;;;;8.80;99.90;;;;;;5021572;28;19929;-68
2024/01/02 08:41:20;;;;;;;;;;;8.90;99.90;;;;;;5021899;28;19929;-68
2024/01/02 08:43:49;;;;;;;;;;;8.90;99.90;;;;;;5020832;28;19965;-69
2024/01/02 08:46:17;;;;;;;;;;;8.90;99.90;;;;;;5022010;28;20617;-69
2024/01/02 08:48:45;;;;;;;;;;;8.90;99.90;;;;;;5021715;28;19933;-67
2024/01/02 08:51:13;;;;;;;;;;;8.90;99.90;;;;;;5020211;28;20419;-68
2024/01/02 08:53:40;;;;;;;;;;;9.00;99.90;;;;;;5021617;28;19933;-67
2024/01/02 08:56:09;;;;;;;;;;;9.00;99.90;;;;;;5022663;28;19929;-67
2024/01/02 08:58:37;;;;;;;;;;;9.00;99.90;;;;;;5021620;28;20293;-68
2024/01/02 09:01:10;;;;;;;;;;;9.00;99.90;;;;;;5021287;28;19933;-68
2024/01/02 09:03:39;;;;;;;;;;;9.00;99.90;;;;;;5021801;28;20307;-69
2024/01/02 09:06:08;;;;;;;;;;;9.10;99.90;;;;;;5022140;28;20020;-69
2024/01/02 09:08:36;;;;;;;;;;;9.10;99.90;;;;;;5022226;28;19933;-68
2024/01/02 09:11:04;;;;;;;;;;;9.10;99.90;;;;;;5020995;28;19940;-68
2024/01/02 09:13:33;;;;;;;;;;;9.10;99.90;;;;;;5020526;28;20811;-67
2024/01/02 09:16:01;;;;;;;;;;;9.10;99.90;;;;;;5021261;28;19937;-68
2024/01/02 09:18:30;;;;;;;;;;;9.10;99.90;;;;;;5021326;28;20602;-68
2024/01/02 09:20:58;;;;;;;;;;;9.10;99.90;;;;;;5020498;28;20017;-68
2024/01/02 09:23:26;;;;;;;;;;;9.10;99.90;;;;;;5020102;28;19940;-68
2024/01/02 09:25:58;;;;;;;;;;;9.10;99.90;;;;;;5020943;28;19925;-68
2024/01/02 09:28:26;;;;;;;;;;;9.10;99.90;;;;;;5020744;28;19929;-68
2024/01/02 09:30:54;;;;;;;;;;;9.10;99.90;;;;;;5020983;28;20466;-68
2024/01/02 09:33:23;;;;;;;;;;;9.20;99.90;;;;;;5021162;28;19982;-68
2024/01/02 09:35:52;;;;;;;;;;;9.20;99.90;;;;;;5021307;28;19933;-70
2024/01/02 09:38:20;;;;;;;;;;;9.20;99.90;;;;;;5020545;28;19933;-67
2024/01/02 09:40:56;;;;;;;;;;;9.20;99.90;;;;;;5020030;28;19933;-67
2024/01/02 09:43:29;;;;;;;;;;;9.30;99.90;;;;;;5020683;28;19934;-68
2024/01/02 09:46:00;;;;;;;;;;;9.30;99.90;;;;;;5020873;28;19925;-70
2024/01/02 09:48:38;;;;;;;;;;;9.20;99.90;;;;;;5020809;28;19940;-68
2024/01/02 09:51:14;;;;;;;;;;;9.30;99.90;;;;;;5020411;28;20314;-67
2024/01/02 09:53:59;;;;;;;;;;;9.20;99.90;;;;;;5020542;28;19964;-68
2024/01/02 09:56:32;;;;;;;;;;;9.20;99.90;;;;;;5020790;28;20007;-71
2024/01/02 09:59:03;;;;;;;;;;;9.20;99.90;;;;;;5019950;28;19933;-67
2024/01/02 10:01:33;;;;;;;;;;;9.30;99.90;;;;;;5019902;28;19933;-68
2024/01/02 10:04:07;;;;;;;;;;;9.30;99.90;;;;;;5020072;28;19925;-68
2024/01/02 10:06:45;;;;;;;;;;;9.30;99.90;;;;;;5020460;28;19940;-67
2024/01/02 10:09:23;;;;;;;;;;;9.30;99.90;;;;;;5022119;28;19940;-68
2024/01/02 10:11:57;;;;;;;;;;;9.30;99.90;;;;;;5017830;28;20307;-69
2024/01/02 10:14:28;;;;;;;;;;;9.20;99.90;;;;;;5020180;28;19929;-69
2024/01/02 10:17:03;;;;;;;;;;;9.20;99.90;;;;;;5019244;28;20533;-70
2024/01/02 10:19:37;;;;;;;;;;;9.20;99.90;;;;;;5017884;28;20415;-68
2024/01/02 10:22:09;;;;;;;;;;;9.20;99.90;;;;;;5020254;28;19933;-67
2024/01/02 10:24:44;;;;;;;;;;;9.20;99.90;;;;;;5019631;28;19933;-70
2024/01/02 10:27:18;;;;;;;;;;;9.30;99.90;;;;;;5019931;28;19933;-69
2024/01/02 10:29:54;;;;;;;;;;;9.20;99.90;;;;;;5019539;28;19937;-69
2024/01/02 10:32:28;;;;;;;;;;;9.30;99.90;;;;;;5019590;28;20633;-68
2024/01/02 10:35:03;;;;;;;;;;;9.20;99.90;;;;;;5019242;28;20539;-68
2024/01/02 10:37:36;;;;;;;;;;;9.20;99.90;;;;;;5018330;28;19933;-70
2024/01/02 10:40:06;;;;;;;;;;;9.20;99.90;;;;;;5019502;28;20836;-69
2024/01/02 10:42:43;;;;;;;;;;;9.20;99.90;;;;;;5017932;28;19932;-69
2024/01/02 10:45:18;;;;;;;;;;;9.30;99.90;;;;;;5020134;28;20483;-69
2024/01/02 10:48:01;;;;;;;;;;;9.30;99.90;;;;;;5071228;22;20456;-67
2024/01/02 10:50:32;;;;;;;;;;;9.40;99.90;;;;;;5058667;28;20023;-65
2024/01/02 10:53:07;;;;;;;;;;;9.40;99.90;;;;;;5069991;28;20521;-65
2024/01/02 10:55:40;;;;;;;;;;;9.40;99.90;;;;;;5068706;28;19932;-65
2024/01/02 10:58:20;;;;;;;;;;;9.40;99.90;;;;;;5047502;28;20445;-68
2024/01/02 11:00:52;;;;;;;;;;;9.40;99.90;;;;;;5049253;28;20403;-66
2024/01/02 11:03:25;;;;;;;;;;;9.50;99.90;;;;;;5044621;28;19940;-64
2024/01/02 11:05:58;;;;;;;;;;;9.50;99.90;;;;;;5052323;28;19931;-66
2024/01/02 11:08:31;;;;;;;;;;;9.50;99.90;;;;;;5049984;28;20376;-66
2024/01/02 11:11:02;;;;;;;;;;;9.50;99.90;;;;;;5050503;28;20384;-66
2024/01/02 11:13:31;;;;;;;;;;;9.50;99.90;;;;;;5045366;28;20459;-64
2024/01/02 11:16:01;;;;;;;;;;;9.60;99.90;;;;;;5049240;28;19975;-65
2024/01/02 11:18:31;;;;;;;;;;;9.60;99.90;;;;;;5049818;28;19933;-65
2024/01/02 11:21:01;;;;;;;;;;;9.60;99.90;;;;;;5048773;28;19929;-66
2024/01/02 11:23:33;;;;;;;;;;;9.60;99.90;;;;;;5049781;28;19929;-65
2024/01/02 11:26:02;;;;;;;;;;;9.60;99.90;;;;;;5049432;28;20027;-66
2024/01/02 11:28:42;;;;;;;;;;;9.60;99.90;;;;;;5066648;28;19928;-66
2024/01/02 11:31:10;;;;;;;;;;;9.60;99.90;;;;;;5056869;28;19932;-64
2024/01/02 11:33:44;;;;;;;;;;;9.70;99.90;;;;;;5047966;28;19933;-65
2024/01/02 11:36:17;;;;;;;;;;;9.80;99.90;;;;;;5042218;28;19937;-64
2024/01/02 11:38:52;;;;;;;;;;;9.90;99.90;;;;;;5040659;28;19936;-64
2024/01/02 11:41:30;;;;;;;;;;;10.00;99.90;;;;;;5049217;28;20391;-63
2024/01/02 11:44:00;;;;;;;;;;;10.10;99.90;;;;;;5049184;28;19940;-64
2024/01/02 11:46:31;;;;;;;;;;;10.00;99.90;;;;;;5049030;28;19931;-64
2024/01/02 11:49:07;;;;;;;;;;;9.90;99.90;;;;;;5049317;28;19932;-64
2024/01/02 11:51:36;;;;;;;;;;;9.90;99.90;;;;;;5049636;28;20024;-64
2024/01/02 11:54:17;;;;;;;;;;;9.90;99.90;;;;;;5040988;28;20342;-65
2024/01/02 11:56:46;;;;;;;;;;;10.00;99.90;;;;;;5049556;28;19932;-65
2024/01/02 11:59:19;;;;;;;;;;;9.90;99.90;;;;;;5059324;28;19994;-66
2024/01/02 12:01:53;;;;;;;;;;;9.70;99.90;;;;;;5045569;28;19925;-65
2024/01/02 12:04:27;;;;;;;;;;;9.60;99.90;;;;;;5053459;28;19925;-65
2024/01/02 12:06:58;;;;;;;;;;;9.50;99.90;;;;;;5053268;28;19925;-66
2024/01/02 12:09:28;;;;;;;;;;;9.50;99.90;;;;;;5052693;28;19925;-66
2024/01/02 12:12:01;;;;;;;;;;;9.40;99.90;;;;;;5053129;28;19993;-67
2024/01/02 12:14:35;;;;;;;;;;;9.40;99.90;;;;;;5048076;28;19933;-66
2024/01/02 12:17:05;;;;;;;;;;;9.30;99.90;;;;;;5044769;28;19928;-65
2024/01/02 12:19:51;;;;;;;;;;;9.30;99.90;;;;;;5052760;28;19925;-68
2024/01/02 12:22:20;;;;;;;;;;;9.20;99.90;;;;;;5053108;28;19928;-65
2024/01/02 12:24:50;;;;;;;;;;;9.20;99.90;;;;;;5053164;28;19932;-65
2024/01/02 12:27:20;;;;;;;;;;;9.10;99.90;;;;;;5057873;28;19985;-65
2024/01/02 12:29:50;;;;;;;;;;;9.10;99.90;;;;;;5071638;28;19935;-65
2024/01/02 12:32:22;;;;;;;;;;;9.10;99.90;;;;;;5053174;28;20406;-66
2024/01/02 12:34:53;;;;;;;;;;;9.00;99.90;;;;;;5052579;28;19936;-65
2024/01/02 12:37:28;;;;;;;;;;;9.00;99.90;;;;;;5047665;28;20003;-66
2024/01/02 12:40:00;;;;;;;;;;;9.00;99.90;;;;;;5051119;28;19925;-66
2024/01/02 12:42:29;;;;;;;;;;;9.00;99.90;;;;;;5052580;28;19933;-66
2024/01/02 12:45:02;;;;;;;;;;;9.00;99.90;;;;;;5052473;28;19950;-66
2024/01/02 12:47:32;;;;;;;;;;;9.00;99.90;;;;;;5052624;28;20019;-68
2024/01/02 12:50:02;;;;;;;;;;;8.90;99.90;;;;;;5052480;28;19974;-65
2024/01/02 12:52:32;;;;;;;;;;;8.90;99.90;;;;;;5052704;28;19936;-67
2024/01/02 12:55:03;;;;;;;;;;;8.90;99.90;;;;;;5052305;28;19929;-65
2024/01/02 12:57:33;;;;;;;;;;;8.90;99.90;;;;;;5058852;28;19978;-66
2024/01/02 13:00:01;;;;;;;;;;;8.90;99.90;;;;;;5061249;28;19932;-65
2024/01/02 13:02:35;;;;;;;;;;;8.90;99.90;;;;;;5052633;28;20315;-65
2024/01/02 13:05:04;;;;;;;;;;;8.80;99.90;;;;;;5052120;28;20439;-65
2024/01/02 13:07:36;;;;;;;;;;;8.90;99.90;;;;;;5052604;28;20300;-66
2024/01/02 13:10:06;;;;;;;;;;;8.90;99.90;;;;;;5051562;28;19932;-66
2024/01/02 13:12:36;;;;;;;;;;;8.80;99.90;;;;;;5052748;28;19975;-66
2024/01/02 13:15:05;;;;;;;;;;;8.90;99.90;;;;;;5050371;28;20311;-67
2024/01/02 13:17:34;;;;;;;;;;;8.80;99.90;;;;;;5052342;28;19933;-66
2024/01/02 13:20:02;;;;;;;;;;;8.80;99.90;;;;;;5051566;28;19925;-67
2024/01/02 13:22:30;;;;;;;;;;;8.80;99.90;;;;;;5051974;28;20400;-71
2024/01/02 13:24:58;;;;;;;;;;;8.80;99.90;;;;;;5051947;28;20024;-67
2024/01/02 13:27:27;;;;;;;;;;;8.80;99.90;;;;;;5057380;28;19929;-66
2024/01/02 13:29:55;;;;;;;;;;;8.80;99.90;;;;;;5062240;28;19924;-66
2024/01/02 13:32:23;;;;;;;;;;;8.90;99.90;;;;;;5052093;28;19925;-66
2024/01/02 13:34:53;;;;;;;;;;;8.90;99.90;;;;;;5051493;28;20031;-66
2024/01/02 13:37:24;;;;;;;;;;;8.90;99.90;;;;;;5045453;28;19940;-66
2024/01/02 13:39:52;;;;;;;;;;;8.90;99.90;;;;;;5051263;28;19931;-67
2024/01/02 13:42:29;;;;;;;;;;;8.90;99.90;;;;;;5052007;28;20276;-62
2024/01/02 13:44:58;;;;;;;;;;;8.90;99.90;;;;;;5049514;28;20003;-64
2024/01/02 13:47:30;;;;;;;;;;;8.90;99.90;;;;;;5050716;28;19931;-65
2024/01/02 13:49:59;;;;;;;;;;;8.90;99.90;;;;;;5051098;28;19932;-65
2024/01/02 13:52:28;;;;;;;;;;;8.90;99.90;;;;;;5049515;28;20459;-65
2024/01/02 13:54:56;;;;;;;;;;;8.90;99.90;;;;;;5055491;28;19932;-66
2024/01/02 13:57:24;;;;;;;;;;;8.90;99.90;;;;;;5055479;28;20302;-66
2024/01/02 13:59:54;;;;;;;;;;;8.90;99.90;;;;;;5062141;28;20395;-66
2024/01/02 14:02:27;;;;;;;;;;;8.90;99.90;;;;;;5050996;28;19958;-65
2024/01/02 14:05:00;;;;;;;;;;;8.90;99.90;;;;;;5051075;28;19958;-65
2024/01/02 14:07:27;;;;;;;;;;;8.90;99.90;;;;;;5051318;28;20277;-68
2024/01/02 14:09:58;;;;;;;;;;;8.90;99.90;;;;;;5050642;28;19924;-66
2024/01/02 14:12:35;;;;;;;;;;;8.90;99.90;;;;;;5051366;28;19983;-67
2024/01/02 14:15:07;;;;;;;;;;;8.90;99.90;;;;;;5051020;28;20315;-68
2024/01/02 14:17:36;;;;;;;;;;;8.90;99.90;;;;;;5051164;28;20434;-65
2024/01/02 14:20:06;;;;;;;;;;;8.90;99.90;;;;;;5050072;28;19925;-66
2024/01/02 14:22:39;;;;;;;;;;;8.90;99.90;;;;;;5051071;28;19925;-67
2024/01/02 14:25:19;;;;;;;;;;;8.80;99.90;;;;;;5050377;28;20419;-65
2024/01/02 14:27:55;;;;;;;;;;;8.80;99.90;;;;;;5051188;28;20358;-68
2024/01/02 14:30:27;;;;;;;;;;;8.80;99.90;;;;;;5058765;28;20015;-66
2024/01/02 14:33:12;;;;;;;;;;;8.80;99.90;;;;;;5050285;28;20011;-65
2024/01/02 14:35:46;;;;;;;;;;;8.80;99.90;;;;;;5035149;28;19968;-67
2024/01/02 14:38:18;;;;;;;;;;;8.90;99.90;;;;;;5050104;28;19932;-65
2024/01/02 14:40:51;;;;;;;;;;;8.80;99.90;;;;;;5050027;28;19929;-67
2024/01/02 14:43:31;;;;;;;;;;;8.80;99.90;;;;;;5049861;28;19983;-65
2024/01/02 14:46:06;;;;;;;;;;;8.90;99.90;;;;;;5050041;28;19978;-65